createdAt,value
2019-05-07T00:02:02.492Z,87.40
2019-05-07T00:04:33.180Z,87.28
2019-05-07T00:07:03.441Z,86.96
2019-05-07T00:09:33.664Z,87.38
2019-05-07T00:12:05.908Z,87.34
2019-05-07T00:14:36.128Z,87.60
2019-05-07T00:17:10.476Z,87.27
2019-05-07T00:19:40.464Z,87.08
2019-05-07T00:22:12.571Z,87.07
2019-05-07T00:24:42.743Z,87.66
2019-05-07T00:27:13.252Z,87.45
2019-05-07T00:29:52.386Z,86.74
2019-05-07T00:32:22.510Z,87.15
2019-05-07T00:35:02.376Z,87.23
2019-05-07T00:37:44.460Z,87.14
2019-05-07T00:40:48.550Z,87.58
2019-05-07T00:43:22.644Z,86.72
2019-05-07T00:46:06.759Z,87.35
2019-05-07T00:48:36.837Z,87.62
2019-05-07T00:51:24.881Z,87.27
2019-05-07T00:53:55.076Z,86.40
2019-05-07T00:56:25.147Z,86.02
2019-05-07T00:58:58.510Z,86.45
2019-05-07T01:01:28.578Z,86.32
2019-05-07T01:03:58.627Z,86.41
2019-05-07T01:06:38.609Z,86.56
2019-05-07T01:09:09.121Z,86.03
2019-05-07T01:11:39.389Z,86.45
2019-05-07T01:14:09.470Z,86.53
2019-05-07T01:16:41.894Z,86.25
2019-05-07T01:19:12.559Z,86.34
2019-05-07T01:21:43.370Z,86.79
2019-05-07T01:24:13.600Z,87.07
2019-05-07T01:26:43.813Z,87.07
2019-05-07T01:29:27.762Z,87.47
2019-05-07T01:32:22.099Z,87.76
2019-05-07T01:35:08.688Z,87.39
2019-05-07T01:37:38.733Z,87.27
2019-05-07T01:40:12.302Z,87.38
2019-05-07T01:42:42.537Z,87.63
2019-05-07T01:45:13.988Z,87.22
2019-05-07T01:47:44.204Z,87.74
2019-05-07T01:50:14.541Z,87.49
2019-05-07T01:52:44.593Z,87.14
2019-05-07T01:55:14.721Z,87.32
2019-05-07T01:57:47.305Z,87.30
2019-05-07T02:00:17.541Z,87.79
2019-05-07T02:02:59.217Z,87.47
2019-05-07T02:05:52.716Z,87.68
2019-05-07T02:08:42.318Z,87.71
2019-05-07T02:11:24.923Z,87.45
2019-05-07T02:13:55.011Z,87.36
2019-05-07T02:16:25.061Z,87.21
2019-05-07T02:18:55.194Z,87.71
2019-05-07T02:21:34.539Z,87.86
2019-05-07T02:24:04.722Z,87.47
2019-05-07T02:26:34.791Z,87.53
2019-05-07T02:29:04.993Z,87.23
2019-05-07T02:31:36.547Z,86.56
2019-05-07T02:34:06.593Z,86.96
2019-05-07T02:36:37.485Z,86.60
2019-05-07T02:39:44.352Z,86.91
2019-05-07T02:42:16.001Z,87.11
2019-05-07T02:45:13.647Z,87.27
2019-05-07T02:47:46.573Z,87.27
2019-05-07T02:50:43.685Z,87.21
2019-05-07T02:53:23.399Z,87.17
2019-05-07T02:55:57.088Z,87.15
2019-05-07T02:58:27.227Z,87.04
2019-05-07T03:01:00.147Z,87.29
2019-05-07T03:03:33.228Z,87.21
2019-05-07T03:06:02.913Z,87.54
2019-05-07T03:08:33.452Z,87.71
2019-05-07T03:11:03.816Z,87.90
2019-05-07T03:13:34.098Z,87.94
2019-05-07T03:16:04.279Z,88.05
2019-05-07T03:18:34.505Z,88.05
2019-05-07T03:21:13.405Z,88.09
2019-05-07T03:24:08.337Z,88.40
2019-05-07T03:26:43.495Z,88.17
2019-05-07T03:29:18.319Z,88.34
2019-05-07T03:31:56.409Z,88.59
2019-05-07T03:34:57.641Z,88.39
2019-05-07T03:37:37.763Z,88.62
2019-05-07T03:40:08.539Z,88.78
2019-05-07T03:42:38.624Z,88.54
2019-05-07T03:45:15.379Z,88.84
2019-05-07T03:47:54.167Z,88.60
2019-05-07T03:50:33.968Z,88.64
2019-05-07T03:53:04.036Z,88.66
2019-05-07T03:55:44.473Z,88.69
2019-05-07T03:58:14.550Z,88.94
2019-05-07T04:01:13.162Z,88.93
2019-05-07T04:03:34.782Z,89.04
2019-05-07T04:06:05.181Z,88.35
2019-05-07T04:08:35.278Z,88.52
2019-05-07T04:11:05.350Z,88.62
2019-05-07T04:13:35.414Z,88.66
2019-05-07T04:16:13.563Z,88.57
2019-05-07T04:19:03.654Z,88.77
2019-05-07T04:21:34.395Z,88.41
2019-05-07T04:24:27.641Z,88.43
2019-05-07T04:27:13.152Z,88.58
2019-05-07T04:30:03.875Z,88.47
2019-05-07T04:32:43.546Z,88.23
2019-05-07T04:35:43.088Z,87.90
2019-05-07T04:38:13.790Z,87.59
2019-05-07T04:40:43.719Z,87.18
2019-05-07T04:43:14.039Z,86.97
2019-05-07T04:45:47.711Z,87.24
2019-05-07T04:48:17.781Z,87.48
2019-05-07T04:50:49.710Z,87.54
2019-05-07T04:53:22.989Z,87.37
2019-05-07T04:55:54.559Z,87.01
2019-05-07T04:58:26.556Z,87.07
2019-05-07T05:00:57.035Z,86.81
2019-05-07T05:03:44.571Z,86.50
2019-05-07T05:06:14.685Z,86.23
2019-05-07T05:08:45.068Z,86.17
2019-05-07T05:11:15.141Z,86.34
2019-05-07T05:14:02.796Z,85.86
2019-05-07T05:17:22.427Z,85.60
2019-05-07T05:19:55.117Z,85.56
2019-05-07T05:23:02.629Z,85.04
2019-05-07T05:25:40.087Z,84.65
2019-05-07T05:28:26.290Z,78.93
2019-05-07T05:30:58.411Z,71.08
2019-05-07T05:33:28.499Z,69.85
2019-05-07T05:35:58.588Z,63.86
2019-05-07T05:38:32.935Z,59.27
2019-05-07T05:41:13.388Z,57.03
2019-05-07T05:43:50.257Z,55.67
2019-05-07T05:46:22.650Z,53.70
2019-05-07T05:48:52.878Z,53.72
2019-05-07T05:51:42.944Z,53.98
2019-05-07T05:54:37.283Z,51.71
2019-05-07T05:57:18.964Z,52.28
2019-05-07T06:00:17.254Z,52.16
2019-05-07T06:03:02.643Z,51.34
2019-05-07T06:06:06.957Z,50.39
2019-05-07T06:09:12.344Z,50.45
2019-05-07T06:12:12.457Z,48.97
2019-05-07T06:15:07.262Z,49.53
2019-05-07T06:17:56.373Z,49.28
2019-05-07T06:20:44.445Z,48.76
2019-05-07T06:23:39.298Z,47.83
2019-05-07T06:26:09.395Z,49.39
2019-05-07T06:28:39.443Z,48.73
2019-05-07T06:31:09.553Z,47.51
2019-05-07T06:33:39.670Z,48.76
2019-05-07T06:36:09.757Z,49.45
2019-05-07T06:39:04.832Z,49.85
2019-05-07T06:41:52.912Z,50.57
2019-05-07T06:44:24.026Z,50.51
2019-05-07T06:46:54.100Z,48.75
2019-05-07T06:49:24.173Z,50.09
2019-05-07T06:51:54.302Z,47.13
2019-05-07T06:54:24.401Z,48.47
2019-05-07T06:56:54.490Z,48.43
2019-05-07T06:59:35.847Z,49.03
2019-05-07T07:02:41.938Z,48.45
2019-05-07T07:05:36.921Z,50.39
2019-05-07T07:08:14.617Z,50.23
2019-05-07T07:11:09.994Z,48.61
2019-05-07T07:13:42.548Z,47.23
2019-05-07T07:16:12.714Z,46.78
2019-05-07T07:18:51.790Z,47.05
2019-05-07T07:21:14.828Z,46.29
2019-05-07T07:24:04.145Z,47.27
2019-05-07T07:26:58.194Z,48.14
2019-05-07T07:29:32.456Z,48.78
2019-05-07T07:32:12.726Z,51.32
2019-05-07T07:34:50.470Z,51.99
2019-05-07T07:37:34.123Z,49.50
2019-05-07T07:43:04.845Z,46.80
2019-05-07T07:45:33.824Z,44.57
2019-05-07T07:48:03.988Z,47.33
2019-05-07T07:50:34.056Z,45.10
2019-05-07T07:53:26.018Z,48.21
2019-05-07T08:00:18.401Z,48.98
2019-05-07T08:02:53.040Z,51.05
2019-05-07T08:05:23.123Z,52.83
2019-05-07T08:07:53.362Z,50.07
2019-05-07T08:10:23.446Z,47.04
2019-05-07T08:12:53.606Z,42.93
2019-05-07T08:15:24.694Z,44.32
2019-05-07T08:17:57.741Z,42.13
2019-05-07T08:20:28.012Z,40.95
2019-05-07T08:22:58.101Z,42.09
2019-05-07T08:25:46.066Z,42.42
2019-05-07T08:28:16.629Z,42.62
2019-05-07T08:31:11.995Z,41.49
2019-05-07T08:33:52.435Z,43.36
2019-05-07T08:36:22.778Z,42.12
2019-05-07T08:38:53.905Z,43.69
2019-05-07T08:41:25.807Z,45.28
2019-05-07T08:44:11.987Z,43.70
2019-05-07T08:46:49.045Z,44.64
2019-05-07T08:49:33.438Z,47.47
2019-05-07T08:52:03.087Z,46.10
2019-05-07T08:54:33.842Z,43.46
2019-05-07T08:57:04.231Z,44.09
2019-05-07T08:59:35.220Z,42.08
2019-05-07T09:02:05.969Z,41.31
2019-05-07T09:04:36.115Z,39.54
2019-05-07T09:07:06.231Z,37.77
2019-05-07T09:09:36.355Z,38.64
2019-05-07T09:12:06.652Z,40.43
2019-05-07T09:14:36.799Z,37.14
2019-05-07T09:17:06.905Z,36.76
2019-05-07T09:19:48.267Z,37.09
2019-05-07T09:22:08.799Z,34.85
2019-05-07T09:24:38.884Z,35.21
2019-05-07T09:27:37.958Z,33.92
2019-05-07T09:30:32.606Z,34.87
2019-05-07T09:33:13.924Z,35.19
2019-05-07T09:35:52.834Z,36.94
2019-05-07T09:38:23.114Z,39.27
2019-05-07T09:40:53.179Z,40.60
2019-05-07T09:43:23.286Z,42.19
2019-05-07T09:45:53.600Z,42.95
2019-05-07T09:48:23.653Z,43.67
2019-05-07T09:50:53.734Z,46.04
2019-05-07T09:53:23.858Z,45.51
2019-05-07T09:55:53.929Z,48.43
2019-05-07T09:58:35.763Z,47.55
2019-05-07T10:00:55.864Z,48.10
2019-05-07T10:03:25.981Z,48.37
2019-05-07T10:05:56.073Z,47.01
2019-05-07T10:08:26.201Z,47.96
2019-05-07T10:10:56.297Z,43.89
2019-05-07T10:13:42.012Z,42.44
2019-05-07T10:16:13.600Z,40.35
2019-05-07T10:18:43.696Z,38.32
2019-05-07T10:21:13.802Z,33.77
2019-05-07T10:23:43.903Z,32.02
2019-05-07T10:26:14.129Z,31.35
2019-05-07T10:28:44.215Z,31.48
2019-05-07T10:31:14.306Z,36.39
2019-05-07T10:33:44.413Z,39.04
2019-05-07T10:36:14.543Z,41.40
2019-05-07T10:38:44.918Z,41.12
2019-05-07T10:41:15.028Z,38.93
2019-05-07T10:43:45.100Z,40.01
2019-05-07T10:46:46.485Z,41.52
2019-05-07T10:49:19.946Z,40.28
2019-05-07T10:51:51.777Z,37.36
2019-05-07T10:54:21.921Z,34.87
2019-05-07T10:56:52.423Z,37.32
2019-05-07T10:59:22.685Z,41.86
2019-05-07T11:02:12.607Z,41.05
2019-05-07T11:04:45.725Z,42.21
2019-05-07T11:07:14.894Z,43.08
2019-05-07T11:09:44.982Z,39.65
2019-05-07T11:12:15.071Z,35.81
2019-05-07T11:14:45.182Z,35.12
2019-05-07T11:17:33.104Z,35.90
2019-05-07T11:20:04.005Z,34.34
2019-05-07T11:22:34.062Z,35.50
2019-05-07T11:25:04.561Z,33.63
2019-05-07T11:27:34.629Z,32.38
2019-05-07T11:30:05.646Z,35.92
2019-05-07T11:32:35.756Z,36.00
2019-05-07T11:35:06.760Z,37.97
2019-05-07T11:37:36.851Z,39.20
2019-05-07T11:40:08.368Z,40.58
2019-05-07T11:43:06.515Z,38.86
2019-05-07T11:45:48.253Z,39.61
2019-05-07T11:48:18.909Z,40.96
2019-05-07T11:51:17.095Z,41.04
2019-05-07T11:54:04.995Z,40.93
2019-05-07T11:56:35.105Z,38.94
2019-05-07T11:59:05.200Z,36.72
2019-05-07T12:01:46.625Z,34.09
2019-05-07T12:04:08.115Z,33.43
2019-05-07T12:06:38.182Z,33.11
2019-05-07T12:09:09.307Z,35.44
2019-05-07T12:11:39.390Z,37.24
2019-05-07T12:14:09.501Z,37.08
2019-05-07T12:16:39.596Z,36.98
2019-05-07T12:19:12.395Z,36.68
2019-05-07T12:21:42.173Z,35.79
2019-05-07T12:24:15.896Z,35.27
2019-05-07T12:26:44.578Z,33.38
2019-05-07T12:29:14.666Z,32.70
2019-05-07T12:31:55.752Z,30.52
2019-05-07T12:34:33.012Z,29.37
2019-05-07T12:37:03.124Z,29.33
2019-05-07T12:39:33.218Z,28.63
2019-05-07T12:42:03.360Z,29.08
2019-05-07T12:44:33.451Z,26.89
2019-05-07T12:47:04.244Z,27.15
2019-05-07T12:49:34.398Z,24.98
2019-05-07T12:52:16.612Z,27.87
2019-05-07T12:54:53.899Z,28.69
2019-05-07T12:57:23.980Z,27.27
2019-05-07T12:59:54.088Z,26.64
2019-05-07T13:02:44.320Z,26.97
2019-05-07T13:05:14.952Z,28.11
2019-05-07T13:07:49.125Z,27.96
2019-05-07T13:10:19.248Z,28.05
2019-05-07T13:12:49.334Z,27.91
2019-05-07T13:15:24.958Z,29.49
2019-05-07T13:17:52.052Z,29.88
2019-05-07T13:20:22.734Z,29.23
2019-05-07T13:22:52.905Z,28.94
2019-05-07T13:25:28.372Z,30.53
2019-05-07T13:27:55.032Z,31.19
2019-05-07T13:30:25.111Z,32.68
2019-05-07T13:32:57.029Z,32.64
2019-05-07T13:35:27.435Z,33.06
2019-05-07T13:38:15.489Z,34.45
2019-05-07T13:41:16.737Z,35.12
2019-05-07T13:44:12.220Z,35.24
2019-05-07T13:46:44.796Z,35.51
2019-05-07T13:49:14.313Z,35.76
2019-05-07T13:51:44.890Z,36.61
2019-05-07T13:54:15.001Z,36.84
2019-05-07T13:56:45.101Z,38.30
2019-05-07T13:59:16.002Z,38.48
2019-05-07T14:01:57.006Z,39.03
2019-05-07T14:04:27.308Z,38.34
2019-05-07T14:06:59.104Z,37.21
2019-05-07T14:09:29.533Z,35.22
2019-05-07T14:12:01.891Z,36.31
2019-05-07T14:14:34.498Z,36.81
2019-05-07T14:17:03.551Z,36.39
2019-05-07T14:19:33.636Z,35.21
2019-05-07T14:22:14.755Z,36.10
2019-05-07T14:24:35.663Z,36.45
2019-05-07T14:27:05.765Z,36.10
2019-05-07T14:29:35.829Z,36.38
2019-05-07T14:32:26.238Z,35.55
2019-05-07T14:35:13.039Z,33.78
2019-05-07T14:37:46.897Z,36.05
2019-05-07T14:40:17.093Z,34.42
2019-05-07T14:42:52.590Z,35.75
2019-05-07T14:45:23.857Z,33.18
2019-05-07T14:47:54.265Z,32.25
2019-05-07T14:50:24.327Z,31.08
2019-05-07T14:52:55.279Z,30.73
2019-05-07T14:55:25.664Z,29.07
2019-05-07T14:57:55.878Z,33.39
2019-05-07T15:00:26.081Z,34.17
2019-05-07T15:02:56.852Z,31.83
2019-05-07T15:05:27.443Z,30.04
2019-05-07T15:08:08.401Z,28.51
2019-05-07T15:10:29.871Z,30.35
2019-05-07T15:13:02.118Z,33.52
2019-05-07T15:15:31.879Z,30.61
2019-05-07T15:18:07.079Z,29.91
2019-05-07T15:20:37.164Z,28.49
2019-05-07T15:23:12.031Z,28.14
2019-05-07T15:25:42.133Z,26.17
2019-05-07T15:28:12.584Z,27.10
2019-05-07T15:31:12.217Z,28.66
2019-05-07T15:33:42.603Z,29.05
2019-05-07T15:36:12.694Z,28.56
2019-05-07T15:38:43.052Z,26.80
2019-05-07T15:41:13.218Z,27.01
2019-05-07T15:43:46.005Z,30.37
2019-05-07T15:46:15.489Z,29.61
2019-05-07T15:48:45.603Z,28.64
2019-05-07T15:51:17.067Z,27.72
2019-05-07T15:53:52.161Z,27.23
2019-05-07T15:56:22.525Z,28.35
2019-05-07T15:58:52.619Z,27.50
2019-05-07T16:01:22.763Z,28.52
2019-05-07T16:03:55.024Z,30.80
2019-05-07T16:06:24.893Z,34.17
2019-05-07T16:08:58.858Z,36.78
2019-05-07T16:11:28.977Z,36.47
2019-05-07T16:14:17.038Z,38.11
2019-05-07T16:16:48.292Z,34.74
2019-05-07T16:19:26.221Z,30.15
2019-05-07T16:21:57.750Z,33.33
2019-05-07T16:24:27.865Z,35.90
2019-05-07T16:26:57.959Z,37.06
2019-05-07T16:29:28.142Z,35.19
2019-05-07T16:31:58.238Z,33.60
2019-05-07T16:34:28.415Z,35.36
2019-05-07T16:36:58.526Z,37.31
2019-05-07T16:39:28.629Z,36.56
2019-05-07T16:41:58.741Z,34.36
2019-05-07T16:44:28.905Z,34.23
2019-05-07T16:46:59.005Z,33.89
2019-05-07T16:49:29.135Z,34.46
2019-05-07T16:51:59.235Z,34.40
2019-05-07T16:54:29.347Z,33.63
2019-05-07T16:57:33.816Z,35.25
2019-05-07T17:00:05.150Z,35.68
2019-05-07T17:02:41.577Z,36.67
2019-05-07T17:05:13.503Z,36.89
2019-05-07T17:07:52.049Z,37.11
2019-05-07T17:10:22.435Z,37.76
2019-05-07T17:12:52.618Z,38.90
2019-05-07T17:15:22.969Z,38.52
2019-05-07T17:17:59.299Z,39.03
2019-05-07T17:20:32.771Z,39.58
2019-05-07T17:23:03.143Z,39.68
2019-05-07T17:25:39.219Z,40.28
2019-05-07T17:28:09.676Z,41.04
2019-05-07T17:30:41.925Z,42.00
2019-05-07T17:33:12.858Z,40.65
2019-05-07T17:35:43.139Z,41.46
2019-05-07T17:38:13.221Z,42.25
2019-05-07T17:40:43.345Z,42.79
2019-05-07T17:43:13.468Z,43.57
2019-05-07T17:45:44.004Z,40.65
2019-05-07T17:48:14.134Z,42.72
2019-05-07T17:50:57.734Z,42.79
2019-05-07T17:53:27.818Z,42.08
2019-05-07T17:55:58.060Z,43.12
2019-05-07T17:58:28.181Z,42.07
2019-05-07T18:01:01.703Z,42.46
2019-05-07T18:03:36.053Z,43.92
2019-05-07T18:06:06.908Z,46.33
2019-05-07T18:08:37.044Z,46.40
2019-05-07T18:11:20.190Z,46.31
2019-05-07T18:13:39.049Z,46.05
2019-05-07T18:16:16.070Z,46.68
2019-05-07T18:18:46.194Z,46.95
2019-05-07T18:21:16.300Z,48.12
2019-05-07T18:23:46.454Z,49.86
2019-05-07T18:26:29.841Z,49.45
2019-05-07T18:28:52.360Z,49.12
2019-05-07T18:31:43.284Z,51.39
2019-05-07T18:34:13.503Z,51.89
2019-05-07T18:36:43.733Z,51.72
2019-05-07T18:39:15.775Z,52.64
2019-05-07T18:41:45.941Z,52.70
2019-05-07T18:44:16.388Z,52.18
2019-05-07T18:46:46.584Z,52.30
2019-05-07T18:49:17.853Z,53.00
2019-05-07T18:51:48.110Z,54.48
2019-05-07T18:54:27.929Z,54.28
2019-05-07T18:56:52.721Z,54.25
2019-05-07T18:59:24.825Z,55.91
2019-05-07T19:01:55.357Z,56.33
2019-05-07T19:04:30.226Z,56.50
2019-05-07T19:07:03.013Z,56.60
2019-05-07T19:09:33.463Z,56.68
2019-05-07T19:12:05.067Z,57.80
2019-05-07T19:14:36.136Z,58.43
2019-05-07T19:17:07.280Z,58.24
2019-05-07T19:19:37.996Z,59.10
2019-05-07T19:22:08.445Z,59.70
2019-05-07T19:24:45.233Z,58.74
2019-05-07T19:27:12.635Z,59.66
2019-05-07T19:29:45.778Z,60.76
2019-05-07T19:32:15.800Z,61.33
2019-05-07T19:34:46.479Z,61.56
2019-05-07T19:37:18.068Z,63.12
2019-05-07T19:39:48.568Z,64.25
2019-05-07T19:42:19.238Z,64.61
2019-05-07T19:44:51.886Z,64.73
2019-05-07T19:47:23.491Z,64.38
2019-05-07T19:49:53.763Z,65.17
2019-05-07T19:52:24.133Z,64.30
2019-05-07T19:55:02.448Z,64.06
2019-05-07T19:57:35.863Z,64.13
2019-05-07T20:00:08.519Z,63.73
2019-05-07T20:02:43.884Z,64.65
2019-05-07T20:05:14.371Z,66.09
2019-05-07T20:07:47.598Z,66.31
2019-05-07T20:10:24.966Z,66.99
2019-05-07T20:12:55.464Z,67.27
2019-05-07T20:15:25.795Z,67.27
2019-05-07T20:17:56.120Z,68.62
2019-05-07T20:20:26.408Z,68.32
2019-05-07T20:22:57.303Z,68.43
2019-05-07T20:25:30.005Z,69.64
2019-05-07T20:28:02.176Z,69.15
2019-05-07T20:30:33.098Z,69.23
2019-05-07T20:33:04.031Z,68.44
2019-05-07T20:35:39.336Z,68.72
2019-05-07T20:38:08.076Z,67.80
2019-05-07T20:40:38.295Z,67.87
2019-05-07T20:43:08.494Z,68.94
2019-05-07T20:45:38.792Z,68.29
2019-05-07T20:48:09.006Z,68.53
2019-05-07T20:50:39.290Z,68.52
2019-05-07T20:53:12.627Z,68.13
2019-05-07T20:55:47.958Z,67.06
2019-05-07T20:58:18.122Z,67.62
2019-05-07T21:00:48.409Z,68.97
2019-05-07T21:03:23.891Z,67.86
2019-05-07T21:05:53.821Z,67.65
2019-05-07T21:08:23.979Z,66.50
2019-05-07T21:10:54.179Z,67.96
2019-05-07T21:13:30.919Z,68.45
2019-05-07T21:15:56.516Z,68.65
2019-05-07T21:18:26.645Z,69.04
2019-05-07T21:20:56.741Z,69.36
2019-05-07T21:23:26.880Z,69.39
2019-05-07T21:25:56.967Z,70.15
2019-05-07T21:28:27.132Z,70.43
2019-05-07T21:30:57.225Z,68.90
2019-05-07T21:33:27.758Z,68.79
2019-05-07T21:35:57.827Z,69.53
2019-05-07T21:38:30.046Z,69.06
2019-05-07T21:41:00.157Z,69.25
2019-05-07T21:43:33.374Z,69.52
2019-05-07T21:46:03.551Z,70.86
2019-05-07T21:48:33.631Z,69.96
2019-05-07T21:51:03.701Z,70.02
2019-05-07T21:53:39.219Z,70.60
2019-05-07T21:56:43.357Z,70.43
2019-05-07T21:59:21.776Z,69.63
2019-05-07T22:01:55.019Z,68.36
2019-05-07T22:04:25.107Z,68.31
2019-05-07T22:06:57.236Z,66.27
2019-05-07T22:09:27.340Z,64.89
2019-05-07T22:11:57.389Z,65.66
2019-05-07T22:14:27.475Z,66.30
2019-05-07T22:16:57.555Z,67.68
2019-05-07T22:19:27.611Z,65.16
2019-05-07T22:21:57.621Z,65.32
2019-05-07T22:24:27.661Z,63.91
2019-05-07T22:26:57.848Z,64.35
2019-05-07T22:29:27.894Z,63.38
2019-05-07T22:32:15.616Z,63.67
2019-05-07T22:35:03.012Z,63.13
2019-05-07T22:37:33.089Z,62.06
2019-05-07T22:40:03.236Z,63.22
2019-05-07T22:42:33.411Z,61.71
2019-05-07T22:45:03.516Z,62.08
2019-05-07T22:47:33.631Z,61.93
2019-05-07T22:50:04.267Z,61.57
2019-05-07T22:52:35.653Z,61.44
2019-05-07T22:55:06.985Z,62.04
2019-05-07T22:58:14.013Z,61.74
2019-05-07T23:00:50.467Z,61.75
2019-05-07T23:03:22.720Z,61.56
2019-05-07T23:05:54.103Z,61.29
2019-05-07T23:08:24.201Z,61.57
2019-05-07T23:10:54.278Z,61.35
2019-05-07T23:13:24.365Z,61.79
2019-05-07T23:15:54.423Z,61.47
2019-05-07T23:18:24.508Z,62.04
2019-05-07T23:20:54.574Z,61.11
2019-05-07T23:23:24.699Z,62.04
2019-05-07T23:25:54.781Z,61.94
2019-05-07T23:28:24.862Z,61.94
2019-05-07T23:30:54.983Z,62.46
2019-05-07T23:33:25.073Z,62.26
2019-05-07T23:35:57.661Z,62.37
2019-05-07T23:38:27.759Z,62.64
2019-05-07T23:41:05.611Z,62.79
2019-05-07T23:43:37.388Z,63.06
2019-05-07T23:46:07.456Z,62.62
2019-05-07T23:48:37.540Z,63.27
2019-05-07T23:51:07.629Z,63.21
2019-05-07T23:53:37.705Z,63.37
2019-05-07T23:56:07.745Z,64.19
2019-05-07T23:58:37.830Z,64.79
